createdAt,value
2022-12-26T00:04:50.901Z,64992.06
2022-12-26T00:10:11.082Z,64992.06
2022-12-26T00:15:34.796Z,64992.06
2022-12-26T00:20:59.205Z,64992.06
2022-12-26T00:26:30.129Z,64992.06
2022-12-26T00:31:53.819Z,64992.06
2022-12-26T00:37:18.718Z,64992.06
2022-12-26T00:42:42.181Z,64992.06
2022-12-26T00:48:05.882Z,64992.06
2022-12-26T00:53:30.403Z,64992.06
2022-12-26T00:58:53.676Z,64992.06
2022-12-26T01:04:17.510Z,64992.06
2022-12-26T01:09:42.474Z,64992.06
2022-12-26T01:15:07.061Z,64992.06
2022-12-26T01:20:30.968Z,64992.06
2022-12-26T01:26:17.793Z,64992.06
2022-12-26T01:31:39.612Z,64992.06
2022-12-26T01:37:02.912Z,64992.06
2022-12-26T01:42:38.103Z,64992.06
2022-12-26T01:48:06.945Z,64992.06
2022-12-26T01:53:33.729Z,64992.06
2022-12-26T01:59:03.618Z,64992.06
2022-12-26T02:04:46.696Z,64992.06
2022-12-26T02:10:15.502Z,64992.06
2022-12-26T02:15:41.940Z,64992.06
2022-12-26T02:21:30.545Z,64992.06
2022-12-26T02:27:23.516Z,64992.06
2022-12-26T02:33:16.472Z,64992.06
2022-12-26T02:38:48.956Z,64992.06
2022-12-26T02:44:40.507Z,64992.06
2022-12-26T02:50:34.479Z,64992.06
2022-12-26T02:56:24.392Z,64992.06
2022-12-26T03:02:15.163Z,64992.06
2022-12-26T03:08:04.782Z,64992.06
2022-12-26T03:13:33.781Z,64992.06
2022-12-26T03:19:04.301Z,64992.06
2022-12-26T03:24:49.967Z,64992.06
2022-12-26T03:30:36.907Z,64992.06
2022-12-26T03:36:07.664Z,64992.06
2022-12-26T03:41:58.637Z,64992.06
2022-12-26T03:48:00.009Z,64992.06
2022-12-26T03:53:57.601Z,64992.06
2022-12-26T03:59:47.699Z,64992.06
2022-12-26T04:05:47.797Z,64992.06
2022-12-26T04:11:35.734Z,64992.06
2022-12-26T04:17:27.361Z,64992.06
2022-12-26T04:23:18.946Z,64992.06
2022-12-26T04:29:06.130Z,64992.06
2022-12-26T04:35:05.891Z,64992.06
2022-12-26T04:40:53.157Z,64992.06
2022-12-26T04:46:17.348Z,64992.06
2022-12-26T04:51:47.734Z,64992.06
2022-12-26T04:57:16.802Z,64992.06
2022-12-26T05:03:03.889Z,64992.06
2022-12-26T05:08:51.507Z,64992.06
2022-12-26T05:14:20.610Z,64992.06
2022-12-26T05:20:01.460Z,64992.06
2022-12-26T05:25:45.977Z,64992.06
2022-12-26T05:31:10.359Z,64992.06
2022-12-26T05:36:39.641Z,64992.06
2022-12-26T05:42:06.210Z,64992.06
2022-12-26T05:47:29.595Z,64992.06
2022-12-26T05:52:53.047Z,64992.06
2022-12-26T05:58:17.534Z,64992.06
2022-12-26T06:03:43.655Z,64992.06
2022-12-26T06:09:06.945Z,64992.06
2022-12-26T06:14:37.686Z,64992.06
2022-12-26T06:20:08.360Z,64992.06
2022-12-26T06:25:37.562Z,64992.06
2022-12-26T06:31:05.419Z,64992.06
2022-12-26T06:36:34.408Z,64992.06
2022-12-26T06:42:00.190Z,64992.06
2022-12-26T06:47:26.933Z,64992.06
2022-12-26T06:52:55.010Z,64992.06
2022-12-26T06:58:18.937Z,64992.06
2022-12-26T07:03:51.877Z,64992.06
2022-12-26T07:09:21.419Z,64992.06
2022-12-26T07:14:50.784Z,64992.06
2022-12-26T07:20:21.433Z,64992.06
2022-12-26T07:25:50.194Z,64992.06
2022-12-26T07:31:20.709Z,64992.06
2022-12-26T07:36:50.924Z,64992.06
2022-12-26T07:42:21.463Z,64992.06
2022-12-26T07:47:54.496Z,64992.06
2022-12-26T07:53:25.104Z,64992.06
2022-12-26T07:58:54.508Z,64992.06
2022-12-26T08:04:23.424Z,64992.06
2022-12-26T08:09:53.987Z,64992.06
2022-12-26T08:15:23.529Z,64992.06
2022-12-26T08:20:52.883Z,64992.06
2022-12-26T08:26:23.416Z,64992.06
2022-12-26T08:31:52.726Z,64992.06
2022-12-26T08:37:21.996Z,64992.06
2022-12-26T08:43:12.268Z,64992.06
2022-12-26T08:48:42.371Z,64992.06
2022-12-26T08:54:11.714Z,64992.06
2022-12-26T08:59:41.822Z,64992.06
2022-12-26T09:05:10.684Z,64992.06
2022-12-26T09:10:40.936Z,64992.06
2022-12-26T09:16:15.164Z,64992.06
2022-12-26T09:21:45.469Z,64992.06
2022-12-26T09:27:14.337Z,64992.06
2022-12-26T09:32:45.198Z,64992.06
2022-12-26T09:38:14.268Z,64992.06
2022-12-26T09:43:56.955Z,64992.06
2022-12-26T09:49:31.930Z,64992.06
2022-12-26T09:55:05.885Z,64992.06
2022-12-26T10:00:44.677Z,64992.06
2022-12-26T13:59:03.278Z,101641.81
2022-12-26T14:04:42.282Z,101642.34
2022-12-26T14:10:19.858Z,101639.09
2022-12-26T14:15:58.173Z,101643.44
2022-12-26T14:21:38.584Z,101645.00
2022-12-26T14:27:30.849Z,101635.09
2022-12-26T14:33:18.732Z,101636.38
2022-12-26T14:38:54.770Z,101626.34
2022-12-26T14:44:43.466Z,101625.38
2022-12-26T14:50:43.828Z,101628.75
2022-12-26T14:56:34.097Z,101626.22
2022-12-26T15:02:11.266Z,101617.31
2022-12-26T15:08:20.763Z,101622.78
2022-12-26T15:14:33.360Z,101613.47
2022-12-26T15:20:48.211Z,101611.19
2022-12-26T15:26:31.417Z,101609.50
2022-12-26T15:32:08.737Z,101615.72
2022-12-26T15:38:03.743Z,101623.47
2022-12-26T15:43:47.609Z,101627.91
2022-12-26T15:49:40.315Z,101629.88
2022-12-26T15:55:29.405Z,101631.56
2022-12-26T16:00:55.743Z,101634.13
2022-12-26T16:06:40.525Z,101638.63
2022-12-26T16:12:22.581Z,101641.47
2022-12-26T16:17:52.842Z,101642.75
2022-12-26T16:23:18.935Z,101649.97
2022-12-26T16:28:47.676Z,101664.66
2022-12-26T16:34:20.420Z,101664.50
2022-12-26T16:39:43.664Z,101663.53
2022-12-26T16:45:18.766Z,101662.97
2022-12-26T16:50:52.994Z,101663.81
2022-12-26T16:56:27.734Z,101645.72
2022-12-26T17:02:00.685Z,101635.56
2022-12-26T17:07:32.720Z,101639.25
2022-12-26T17:13:04.655Z,101638.13
2022-12-26T17:18:42.613Z,101631.47
2022-12-26T17:24:23.843Z,101624.66
2022-12-26T17:29:58.432Z,101615.22
2022-12-26T17:35:41.427Z,101617.19
2022-12-26T17:41:21.911Z,101615.53
2022-12-26T17:46:51.253Z,101610.16
2022-12-26T17:52:22.915Z,101612.00
2022-12-26T17:57:54.129Z,101616.09
2022-12-26T18:03:23.466Z,101622.88
2022-12-26T18:08:52.107Z,101623.44
2022-12-26T18:14:23.471Z,101619.75
2022-12-26T18:19:52.514Z,101613.56
2022-12-26T18:25:24.632Z,101613.84
2022-12-26T18:30:55.213Z,101620.19
2022-12-26T18:36:30.445Z,101628.53
2022-12-26T18:41:59.206Z,101626.25
2022-12-26T18:47:29.711Z,101630.47
2022-12-26T18:52:58.175Z,101651.09
2022-12-26T18:58:27.439Z,101629.91
2022-12-26T19:03:58.399Z,101613.81
2022-12-26T19:09:27.567Z,101611.00
2022-12-26T19:14:56.283Z,101619.47
2022-12-26T19:20:27.862Z,101607.19
2022-12-26T19:25:57.123Z,101599.28
2022-12-26T22:16:07.533Z,101524.13
2022-12-26T22:21:32.969Z,101512.69
2022-12-26T22:26:57.789Z,101514.13
2022-12-26T22:32:22.443Z,101515.94
2022-12-26T22:37:46.207Z,101521.78
2022-12-26T22:43:09.655Z,101526.78
2022-12-26T22:48:39.971Z,101521.09
2022-12-26T22:54:03.264Z,101517.88
2022-12-26T23:00:06.523Z,101514.56
2022-12-26T23:05:22.259Z,101515.53
2022-12-26T23:10:50.715Z,101517.50
2022-12-26T23:16:29.751Z,101516.69
2022-12-26T23:22:02.278Z,101507.53
2022-12-26T23:27:48.773Z,101503.44
2022-12-26T23:33:15.313Z,101507.63
2022-12-26T23:38:47.500Z,101507.50
2022-12-26T23:44:17.066Z,101510.06
2022-12-26T23:49:46.716Z,101493.59
2022-12-26T23:55:16.968Z,101494.97
